Time;durP1;ratioP1;P1;durP2;ratioP2;P2;SDS_P1;SDS_P2;PMS_P1;PMS_P2;Temp;Humidity;BMP_temperature;BMP_pressure;BME280_temperature;BME280_humidity;BME280_pressure;Samples;Min_cycle;Max_cycle;Signal;HPM_P1;HPM_P2
2022/03/28 00:04:46;;;;;;;1.73;0.77;;;;;;;1.19;67.57;100562.81;10331344;28;20042;-77
2022/03/28 00:09:47;;;;;;;2.35;0.88;;;;;;;1.20;67.54;100589.78;10331733;28;20034;-77
2022/03/28 00:14:48;;;;;;;1.80;0.57;;;;;;;0.11;67.41;100385.19;10331640;28;20038;-77
2022/03/28 00:19:48;;;;;;;1.73;0.60;;;;;;;-0.21;67.76;100348.94;10332171;28;20050;-77
2022/03/28 00:24:49;;;;;;;1.50;0.80;;;;;;;0.27;67.29;100445.97;10332723;28;20061;-76
2022/03/28 00:29:50;;;;;;;2.15;0.90;;;;;;;1.45;67.29;100620.44;10332504;28;20034;-76
2022/03/28 00:34:51;;;;;;;2.13;0.70;;;;;;;1.29;67.15;100613.59;10332054;28;20042;-76
2022/03/28 00:39:52;;;;;;;3.63;0.70;;;;;;;0.41;66.54;100445.06;10332388;28;20046;-77
2022/03/28 00:44:52;;;;;;;4.55;0.75;;;;;;;1.23;65.91;100598.31;10332295;28;20038;-76
2022/03/28 00:49:53;;;;;;;2.03;0.47;;;;;;;0.93;66.12;100579.38;10331053;28;20050;-77
2022/03/28 00:54:57;;;;;;;1.42;0.50;;;;;;;0.50;66.10;100504.56;10331816;28;20053;-78
2022/03/28 01:00:05;;;;;;;1.83;0.65;;;;;;;-0.54;65.88;100364.97;10331471;28;20046;-78
2022/03/28 01:05:07;;;;;;;3.35;0.70;;;;;;;-0.36;66.93;100412.56;10331612;28;20098;-77
2022/03/28 01:10:10;;;;;;;9.52;0.93;;;;;;;-0.40;70.10;100486.78;10331216;28;20043;-76
2022/03/28 01:15:13;;;;;;;3.40;0.80;;;;;;;0.32;72.55;100665.16;10330789;28;20509;-77
2022/03/28 01:20:14;;;;;;;4.38;0.70;;;;;;;0.48;75.26;100746.06;10338308;28;20077;-78
2022/03/28 01:25:21;;;;;;;1.77;0.80;;;;;;;-0.03;77.72;100674.22;10339867;28;20054;-77
2022/03/28 01:30:23;;;;;;;3.78;0.85;;;;;;;-0.27;78.30;100655.63;10339195;28;20553;-77
2022/03/28 01:35:41;;;;;;;1.40;0.50;;;;;;;-0.65;78.85;100591.81;10338450;28;20042;-77
2022/03/28 01:40:46;;;;;;;1.27;0.63;;;;;;;0.19;79.54;100744.28;10338973;28;20050;-77
2022/03/28 01:45:47;;;;;;;4.35;1.00;;;;;;;-1.49;79.37;100475.84;10338146;28;20049;-78
2022/03/28 01:50:48;;;;;;;5.30;1.00;;;;;;;-0.26;80.21;100685.19;10338138;28;20479;-77
2022/03/28 01:55:49;;;;;;;2.67;0.98;;;;;;;-1.58;79.47;100447.72;10337809;28;20034;-77
2022/03/28 02:00:50;;;;;;;2.33;1.00;;;;;;;0.31;78.73;100768.03;10338087;28;20054;-77
2022/03/28 02:05:51;;;;;;;1.67;0.70;;;;;;;-0.73;78.23;100574.00;10337463;28;20490;-77
2022/03/28 02:10:54;;;;;;;2.40;1.00;;;;;;;-0.64;77.38;100598.69;10336553;28;20450;-77
2022/03/28 02:15:55;;;;;;;2.33;0.65;;;;;;;-0.44;76.38;100636.69;10337292;28;20048;-77
2022/03/28 02:20:55;;;;;;;2.53;1.00;;;;;;;-0.66;76.43;100617.03;10342500;28;20069;-77
2022/03/28 02:25:57;;;;;;;2.55;0.95;;;;;;;-0.72;76.90;100622.63;10372892;28;20041;-77
2022/03/28 02:30:59;;;;;;;2.10;0.80;;;;;;;0.14;76.85;100772.47;10351312;28;20441;-77
2022/03/28 02:35:59;;;;;;;5.15;1.10;;;;;;;-1.28;77.21;100549.34;10377451;28;20441;-78
2022/03/28 02:41:00;;;;;;;2.33;0.98;;;;;;;-0.84;77.66;100621.56;10375295;28;20080;-77
2022/03/28 02:46:01;;;;;;;1.88;0.90;;;;;;;-0.63;76.87;100649.94;10376387;28;20045;-76
2022/03/28 02:51:02;;;;;;;4.22;0.98;;;;;;;-0.64;77.03;100656.94;10375482;28;20046;-77
2022/03/28 02:56:03;;;;;;;4.20;1.17;;;;;;;-1.58;76.28;100525.88;10385940;28;20045;-77
2022/03/28 03:01:03;;;;;;;2.78;1.00;;;;;;;0.57;76.74;100860.53;10383788;28;20252;-76
2022/03/28 03:06:04;;;;;;;3.97;0.90;;;;;;;-0.95;76.57;100626.56;10370817;28;20272;-77
2022/03/28 03:11:06;;;;;;;3.65;1.38;;;;;;;0.45;76.95;100867.38;10384707;28;20097;-77
2022/03/28 03:16:07;;;;;;;3.75;1.23;;;;;;;-0.07;76.52;100797.22;10384850;28;20034;-77
2022/03/28 03:21:07;;;;;;;3.50;1.30;;;;;;;-0.64;76.23;100724.78;10384731;28;20460;-76
2022/03/28 03:26:08;;;;;;;5.03;1.23;;;;;;;-0.15;76.06;100829.03;10378466;28;20042;-77
2022/03/28 03:31:12;;;;;;;7.68;1.70;;;;;;;-0.09;73.16;100813.00;10377931;28;20080;-77
2022/03/28 03:36:13;;;;;;;5.32;1.50;;;;;;;-0.59;72.87;100751.47;10384398;28;20049;-76
2022/03/28 03:41:14;;;;;;;4.78;1.75;;;;;;;-0.81;72.14;100753.56;10383955;28;20042;-78
2022/03/28 03:46:15;;;;;;;2.97;1.75;;;;;;;-0.20;71.77;100851.09;10379534;28;20046;-77
2022/03/28 03:51:17;;;;;;;5.55;1.80;;;;;;;0.17;71.21;100909.91;10380263;28;20418;-76
2022/03/28 03:56:18;;;;;;;3.58;1.88;;;;;;;0.36;70.50;100900.09;10380586;28;20517;-76
2022/03/28 04:01:20;;;;;;;4.13;1.95;;;;;;;1.18;67.96;100924.88;10391531;28;20052;-77
2022/03/28 04:06:22;;;;;;;3.17;1.83;;;;;;;1.68;66.01;100915.66;10383435;28;20055;-77
2022/03/28 04:11:22;;;;;;;4.07;1.60;;;;;;;1.09;67.00;100907.13;10370028;28;20522;-76
2022/03/28 04:16:24;;;;;;;3.45;1.80;;;;;;;0.01;68.99;100828.13;10382144;28;20052;-76
2022/03/28 04:21:24;;;;;;;4.22;1.77;;;;;;;0.73;69.12;100972.94;10378724;28;20065;-74
2022/03/28 04:26:26;;;;;;;6.80;1.63;;;;;;;-0.28;70.50;100875.00;10374295;28;20140;-77
2022/03/28 04:31:28;;;;;;;4.50;1.60;;;;;;;0.91;69.98;101000.63;10364500;28;20049;-78
2022/03/28 04:36:33;;;;;;;2.83;1.50;;;;;;;0.93;68.48;100873.22;10372139;28;20049;-77
2022/03/28 04:41:34;;;;;;;4.38;1.80;;;;;;;1.79;65.15;100996.16;10381710;28;20050;-77
2022/03/28 04:46:35;;;;;;;2.83;1.50;;;;;;;0.99;65.26;100921.66;10358852;28;20042;-79
2022/03/28 04:51:36;;;;;;;3.25;1.80;;;;;;;1.26;64.45;101074.44;10358517;28;20509;-77
2022/03/28 04:56:37;;;;;;;3.28;1.80;;;;;;;0.88;62.67;101077.50;10405579;28;20042;-74
2022/03/28 05:01:37;;;;;;;3.47;2.05;;;;;;;1.27;61.99;101106.69;10353545;28;20046;-74
2022/03/28 05:06:38;;;;;;;3.88;1.75;;;;;;;0.80;61.80;101030.00;10347263;28;20045;-74
2022/03/28 05:11:39;;;;;;;3.97;1.95;;;;;;;1.19;62.10;101122.81;10346601;28;20080;-78
2022/03/28 05:16:40;;;;;;;3.25;1.30;;;;;;;0.50;61.76;101050.06;10350078;28;20034;-79
2022/03/28 05:21:41;;;;;;;3.40;1.25;;;;;;;0.90;59.67;101062.56;10339385;28;20058;-77
2022/03/28 05:26:41;;;;;;;3.25;1.65;;;;;;;0.27;59.47;100925.91;10339533;28;20191;-76
2022/03/28 05:31:42;;;;;;;5.50;1.63;;;;;;;1.77;58.61;101160.47;10339606;28;20201;-79
2022/03/28 05:36:45;;;;;;;4.47;2.00;;;;;;;0.70;59.04;101010.56;10337936;28;20120;-76
2022/03/28 05:41:46;;;;;;;3.97;2.03;;;;;;;1.74;58.49;101148.41;10337268;28;20130;-77
2022/03/28 05:46:50;;;;;;;5.43;1.58;;;;;;;0.35;56.88;100887.94;10337635;28;20030;-75
2022/03/28 05:51:52;;;;;;;3.40;1.75;;;;;;;1.61;56.93;101102.91;10336787;28;20050;-76
2022/03/28 05:56:53;;;;;;;3.10;1.70;;;;;;;0.82;58.38;101016.84;10336097;28;20148;-77
2022/03/28 06:01:54;;;;;;;6.75;2.25;;;;;;;1.98;60.21;101181.94;10340349;28;20125;-75
2022/03/28 06:06:55;;;;;;;4.22;2.35;;;;;;;1.01;59.28;101027.06;10372578;28;20050;-75
2022/03/28 06:11:56;;;;;;;2.88;1.45;;;;;;;2.14;57.98;101180.06;10378012;28;20092;-77
2022/03/28 06:16:57;;;;;;;3.58;1.83;;;;;;;1.34;55.15;101030.31;10348129;28;20108;-79
2022/03/28 06:21:58;;;;;;;5.85;2.17;;;;;;;2.57;54.72;101211.50;10346681;28;20055;-78
2022/03/28 06:26:59;;;;;;;4.35;1.52;;;;;;;2.72;53.66;101252.53;10338524;28;20046;-79
2022/03/28 06:32:00;;;;;;;6.20;1.70;;;;;;;2.88;52.83;101220.09;10357596;28;20041;-78
2022/03/28 06:37:00;;;;;;;5.55;1.52;;;;;;;1.52;52.57;100946.34;10368684;28;20038;-76
2022/03/28 06:42:02;;;;;;;4.30;1.83;;;;;;;1.63;51.26;100943.91;10359534;28;20046;-81
2022/03/28 06:47:03;;;;;;;2.10;1.00;;;;;;;2.06;50.08;101051.25;10374896;28;20052;-82
2022/03/28 06:52:04;;;;;;;5.50;1.52;;;;;;;2.49;50.07;101114.13;10336036;28;20184;-81
2022/03/28 06:57:04;;;;;;;2.85;1.30;;;;;;;2.95;50.05;101242.38;10334783;28;20086;-81
2022/03/28 07:02:06;;;;;;;4.20;1.40;;;;;;;3.39;49.69;101250.03;10335929;28;20560;-79
2022/03/28 07:07:10;;;;;;;3.40;1.20;;;;;;;2.09;49.07;101022.22;10334875;28;20038;-79
2022/03/28 07:12:11;;;;;;;2.58;0.80;;;;;;;3.23;47.68;101269.50;10334693;28;20042;-79
2022/03/28 07:17:12;;;;;;;5.22;1.10;;;;;;;3.01;48.84;101270.84;10333961;28;20490;-80
2022/03/28 07:22:13;;;;;;;3.97;1.25;;;;;;;3.10;47.18;101139.00;10335150;28;20443;-80
2022/03/28 07:27:14;;;;;;;3.50;1.25;;;;;;;3.64;47.36;101246.63;10333133;28;20491;-80
2022/03/28 07:32:15;;;;;;;12.40;1.77;;;;;;;2.95;47.64;101174.13;10332812;28;20054;-79
2022/03/28 07:37:16;;;;;;;2.15;0.90;;;;;;;3.26;46.80;101291.19;10333166;28;20038;-80
2022/03/28 07:42:17;;;;;;;9.43;1.40;;;;;;;3.01;47.25;101251.66;10344203;28;20042;-80
2022/03/28 07:47:17;;;;;;;2.95;1.00;;;;;;;1.00;46.68;100975.69;10333672;28;20060;-79
2022/03/28 07:52:19;;;;;;;2.47;1.10;;;;;;;2.53;47.05;101257.22;10333534;28;20133;-79
2022/03/28 07:57:20;;;;;;;1.83;0.57;;;;;;;2.14;44.75;101171.34;10333099;28;20049;-80
2022/03/28 08:02:24;;;;;;;3.72;1.10;;;;;;;3.15;42.83;101281.34;10332474;28;20038;-79
2022/03/28 08:07:24;;;;;;;7.45;1.20;;;;;;;3.46;42.65;101294.28;10333192;28;20053;-80
2022/03/28 08:12:25;;;;;;;6.78;1.17;;;;;;;2.55;44.02;101168.81;10343754;28;20426;-81
2022/03/28 08:17:26;;;;;;;6.03;1.48;;;;;;;3.11;45.07;101284.25;10371754;28;20544;-79
2022/03/28 08:22:27;;;;;;;1.90;0.88;;;;;;;3.86;44.57;101285.50;10371076;28;20092;-79
2022/03/28 08:27:28;;;;;;;5.53;1.10;;;;;;;3.80;42.62;101233.34;10372784;28;20088;-80
2022/03/28 08:32:29;;;;;;;10.25;1.33;;;;;;;3.56;43.79;101259.47;10372676;28;20050;-80
2022/03/28 08:37:31;;;;;;;12.60;1.48;;;;;;;3.74;43.90;101105.00;10372294;28;20486;-81
2022/03/28 08:42:33;;;;;;;3.42;1.10;;;;;;;4.22;40.98;101120.94;10371344;28;20093;-79
2022/03/28 08:47:37;;;;;;;15.13;1.83;;;;;;;4.85;41.57;101258.56;10372332;28;20038;-80
2022/03/28 08:52:42;;;;;;;6.72;1.00;;;;;;;5.17;40.21;101316.84;10372540;28;20038;-79
2022/03/28 08:57:43;;;;;;;8.00;1.35;;;;;;;3.77;42.33;101256.34;10372678;28;20044;-78
2022/03/28 09:02:46;;;;;;;6.75;1.35;;;;;;;3.26;45.26;101272.78;10370899;28;20402;-81
2022/03/28 09:07:46;;;;;;;11.45;1.10;;;;;;;3.76;46.70;101259.91;10371979;28;20050;-79
2022/03/28 09:13:05;;;;;;;9.52;1.50;;;;;;;4.31;45.73;101300.94;10369888;28;20042;-79
2022/03/28 09:18:05;;;;;;;11.45;1.95;;;;;;;4.88;43.15;101331.25;10370204;28;20058;-80
2022/03/28 09:23:42;;;;;;;19.55;2.75;;;;;;;5.45;41.08;101339.44;10372638;28;20045;-80
2022/03/28 09:28:53;;;;;;;16.58;1.80;;;;;;;4.78;42.07;101229.19;10371572;28;20050;-79
2022/03/28 09:34:12;;;;;;;12.57;1.60;;;;;;;4.15;43.49;101321.31;10367403;28;20049;-79
2022/03/28 09:39:28;;;;;;;12.23;1.98;;;;;;;3.67;48.95;101238.56;10335741;28;20121;-79
2022/03/28 09:44:44;;;;;;;9.13;1.65;;;;;;;4.77;49.19;101345.97;10338262;28;20046;-79
2022/03/28 09:49:47;;;;;;;8.07;1.50;;;;;;;3.99;50.50;101308.34;10338887;28;20044;-80
2022/03/28 09:55:00;;;;;;;5.03;2.10;;;;;;;3.48;52.16;101224.13;10337409;28;20093;-80
2022/03/28 10:00:14;;;;;;;6.25;1.42;;;;;;;4.65;49.48;101343.34;10349095;28;20045;-79
2022/03/28 10:05:15;;;;;;;;;;;;;;;5.87;47.55;101342.53;10354668;28;20042;-79
2022/03/28 10:10:16;;;;;;;7.82;1.38;;;;;;;5.12;48.45;101331.31;10339399;28;20409;-79
2022/03/28 10:15:17;;;;;;;7.32;1.33;;;;;;;4.33;48.75;101156.97;10334983;28;20066;-78
2022/03/28 10:20:18;;;;;;;2.28;1.13;;;;;;;5.71;49.84;101328.78;10336337;28;20054;-80
2022/03/28 10:25:22;;;;;;;4.18;1.83;;;;;;;3.38;55.28;101103.91;10338414;28;20042;-80
2022/03/28 10:30:27;;;;;;;;;;;;;;;4.17;54.97;101328.16;10337146;28;20140;-79
2022/03/28 10:35:28;;;;;;;4.35;1.40;;;;;;;3.12;58.28;101291.19;10335698;28;19917;-80
2022/03/28 10:40:31;;;;;;;3.08;1.73;;;;;;;2.28;63.93;101340.00;10316492;28;20052;-79
2022/03/28 10:45:34;;;;;;;3.20;1.73;;;;;;;1.70;69.55;101340.72;10350961;28;20059;-78
2022/03/28 10:50:50;;;;;;;3.53;1.70;;;;;;;1.66;73.22;101272.88;10344204;28;20047;-83
2022/03/28 10:56:01;;;;;;;4.57;2.13;;;;;;;2.55;75.07;101315.69;10334758;28;20042;-81
2022/03/28 11:01:08;;;;;;;8.23;1.98;;;;;;;3.14;74.95;101334.81;10345553;28;20128;-80
2022/03/28 11:06:10;;;;;;;3.80;2.05;;;;;;;3.29;71.88;101345.25;10347178;28;20038;-78
2022/03/28 11:11:14;;;;;;;4.55;2.20;;;;;;;1.65;71.33;101151.56;10349417;28;20039;-78
2022/03/28 11:16:19;;;;;;;3.42;1.95;;;;;;;2.54;72.17;101358.56;10361134;28;20192;-78
2022/03/28 11:21:25;;;;;;;5.47;2.15;;;;;;;3.61;70.58;101341.44;10359836;28;20058;-79
2022/03/28 11:26:29;;;;;;;4.10;2.05;;;;;;;3.72;69.28;101287.34;10333725;28;20192;-78
2022/03/28 11:31:29;;;;;;;4.60;2.10;;;;;;;4.06;67.47;101344.63;10345039;28;20077;-78
2022/03/28 11:36:32;;;;;;;3.13;1.83;;;;;;;3.26;64.00;101175.63;10333914;28;20081;-78
2022/03/28 11:41:34;;;;;;;3.78;2.03;;;;;;;4.14;62.43;101351.19;10329973;28;20041;-77
2022/03/28 11:46:35;;;;;;;11.05;2.20;;;;;;;3.03;57.29;101142.16;10353329;28;20053;-79
2022/03/28 11:51:38;;;;;;;9.80;2.35;;;;;;;4.10;56.67;101354.03;10344406;28;20043;-77
2022/03/28 12:02:02;;;;;;;7.47;2.35;;;;;;;4.46;55.81;101351.66;10333700;28;20050;-74
2022/03/28 12:07:03;;;;;;;2.83;1.35;;;;;;;4.80;55.07;101344.94;10343906;28;20038;-77
2022/03/28 12:12:05;;;;;;;11.10;2.05;;;;;;;4.55;52.99;101312.41;10331346;28;20053;-76
2022/03/28 12:17:06;;;;;;;7.32;2.03;;;;;;;4.03;51.07;101236.19;10330570;28;20074;-78
2022/03/28 12:22:18;;;;;;;26.88;2.80;;;;;;;4.53;50.39;101316.91;10332345;28;20064;-79
2022/03/28 12:27:20;;;;;;;24.40;2.40;;;;;;;4.20;47.35;101178.03;10333273;28;20069;-78
2022/03/28 12:32:21;;;;;;;7.60;1.23;;;;;;;4.35;46.33;101148.03;10343085;28;20600;-78
2022/03/28 12:37:26;;;;;;;13.20;2.10;;;;;;;4.46;46.77;101207.78;10365338;28;20046;-78
2022/03/28 12:42:28;;;;;;;5.18;1.45;;;;;;;4.72;47.53;101323.53;10361999;28;20080;-78
2022/03/28 12:47:29;;;;;;;20.55;1.70;;;;;;;4.68;47.84;101327.34;10357894;28;20068;-79
2022/03/28 12:52:31;;;;;;;14.88;1.75;;;;;;;4.86;46.50;101326.06;10344344;28;20054;-78
2022/03/28 12:57:36;;;;;;;18.95;1.98;;;;;;;4.51;44.95;101225.88;10363278;28;20050;-77
2022/03/28 13:02:53;;;;;;;25.88;2.75;;;;;;;5.44;44.84;101332.50;10361353;28;20046;-75
2022/03/28 13:07:53;;;;;;;6.57;1.15;;;;;;;5.81;44.58;101324.53;10349763;28;20038;-81
2022/03/28 13:12:56;;;;;;;6.25;1.42;;;;;;;4.89;42.46;101214.44;10357585;28;20064;-77
2022/03/28 13:18:09;;;;;;;23.73;2.05;;;;;;;5.48;44.38;101319.94;10368111;28;20041;-77
2022/03/28 13:23:21;;;;;;;3.65;1.23;;;;;;;5.14;43.81;101285.44;10371187;28;20038;-75
2022/03/28 13:28:24;;;;;;;8.93;1.42;;;;;;;4.90;44.15;101239.81;10336511;28;20046;-77
2022/03/28 13:33:25;;;;;;;11.90;1.55;;;;;;;5.04;43.57;101269.47;10345259;28;20058;-77
2022/03/28 13:38:26;;;;;;;17.30;1.60;;;;;;;5.25;44.11;101284.69;10364033;28;20045;-77
2022/03/28 13:43:27;;;;;;;10.38;1.48;;;;;;;4.19;44.28;101136.91;10379055;28;20038;-77
2022/03/28 13:48:29;;;;;;;6.90;1.30;;;;;;;5.43;44.50;101322.03;10377459;28;20042;-75
2022/03/28 13:53:31;;;;;;;13.98;2.13;;;;;;;5.23;43.89;101344.53;10337937;28;20049;-73
2022/03/28 13:58:32;;;;;;;10.60;1.42;;;;;;;4.68;44.82;101265.03;10338047;28;20050;-75
2022/03/28 14:03:34;;;;;;;7.35;1.45;;;;;;;4.18;44.44;101192.25;10337606;28;20128;-78
2022/03/28 14:08:37;;;;;;;5.93;1.30;;;;;;;4.83;45.21;101318.38;10336695;28;20406;-78
2022/03/28 14:13:39;;;;;;;9.90;1.17;;;;;;;4.51;45.02;101274.06;10338343;28;20057;-75
2022/03/28 14:18:41;;;;;;;11.75;1.35;;;;;;;4.91;45.27;101352.94;10372545;28;20069;-75
2022/03/28 14:23:43;;;;;;;3.33;0.88;;;;;;;3.14;45.42;101077.50;10366725;28;20041;-76
2022/03/28 14:28:44;;;;;;;10.98;1.30;;;;;;;4.94;45.66;101365.03;10356176;28;20045;-85
2022/03/28 14:33:45;;;;;;;5.43;1.13;;;;;;;4.91;45.56;101386.31;10361614;28;20069;-76
2022/03/28 14:38:46;;;;;;;3.33;1.05;;;;;;;4.03;45.57;101247.56;10356629;28;20553;-86
2022/03/28 14:43:48;;;;;;;5.13;1.38;;;;;;;2.88;46.32;101079.22;10356148;28;20067;-81
2022/03/28 14:48:48;;;;;;;8.02;1.42;;;;;;;4.11;46.50;101308.38;10357209;28;20096;-86
2022/03/28 14:53:49;;;;;;;4.88;1.20;;;;;;;4.46;46.96;101389.34;10352420;28;20379;-80
2022/03/28 14:58:50;;;;;;;4.20;1.33;;;;;;;4.02;46.63;101355.47;10353109;28;20039;-80
2022/03/28 15:03:52;;;;;;;3.50;0.90;;;;;;;4.20;47.63;101416.53;10346843;28;20042;-85
2022/03/28 15:08:53;;;;;;;4.47;1.30;;;;;;;3.83;48.11;101390.00;10353596;28;20034;-86
2022/03/28 15:13:54;;;;;;;3.42;1.20;;;;;;;3.84;48.76;101416.19;10383955;28;20075;-88
2022/03/28 15:18:55;;;;;;;7.93;1.50;;;;;;;2.42;48.94;101226.44;10379908;28;20550;-85
2022/03/28 15:23:57;;;;;;;5.78;1.48;;;;;;;3.58;49.65;101438.00;10384986;28;20057;-85
2022/03/28 15:28:58;;;;;;;5.95;1.40;;;;;;;2.01;49.95;101207.97;10383479;28;20042;-85
2022/03/28 15:34:02;;;;;;;5.57;1.40;;;;;;;1.27;50.45;101091.81;10353431;28;20061;-85
2022/03/28 15:39:04;;;;;;;6.75;1.48;;;;;;;2.91;51.08;101377.38;10382873;28;20052;-85
2022/03/28 15:44:07;;;;;;;6.47;1.58;;;;;;;2.94;51.70;101413.94;10380809;28;20514;-86
2022/03/28 15:49:09;;;;;;;2.95;1.00;;;;;;;2.19;51.89;101308.25;10379629;28;20049;-86
2022/03/28 15:54:12;;;;;;;3.40;1.50;;;;;;;1.82;52.34;101260.56;10384447;28;20098;-85
2022/03/28 15:59:14;;;;;;;3.78;1.20;;;;;;;2.66;52.37;101401.59;10384671;28;20041;-87
2022/03/28 16:04:17;;;;;;;4.57;2.08;;;;;;;1.11;52.96;101174.78;10383057;28;20050;-85
2022/03/28 16:09:21;;;;;;;3.97;1.55;;;;;;;-0.16;52.93;100957.88;10380806;28;20037;-84
2022/03/28 16:14:25;;;;;;;9.98;2.10;;;;;;;2.58;53.37;101423.06;10362364;28;20069;-86
2022/03/28 16:19:27;;;;;;;6.00;1.75;;;;;;;2.06;53.31;101360.50;10373108;28;20058;-84
2022/03/28 16:24:28;;;;;;;6.00;1.20;;;;;;;1.50;53.76;101302.56;10355407;28;20073;-87
2022/03/28 16:29:30;;;;;;;3.40;1.58;;;;;;;1.74;54.04;101326.53;10341569;28;20088;-87
2022/03/28 16:34:32;;;;;;;6.47;1.40;;;;;;;1.43;54.22;101284.66;10362295;28;20046;-88
2022/03/28 16:39:35;;;;;;;4.63;1.60;;;;;;;1.46;54.78;101306.28;10340757;28;20046;-81
2022/03/28 16:44:36;;;;;;;11.05;1.40;;;;;;;1.78;54.36;101343.75;10357711;28;20050;-85
2022/03/28 16:49:37;;;;;;;2.85;1.42;;;;;;;2.35;54.28;101413.88;10334720;28;20054;-85
2022/03/28 16:54:38;;;;;;;4.43;1.77;;;;;;;0.90;54.55;101219.53;10356409;28;20069;-84
2022/03/28 16:59:39;;;;;;;11.65;1.75;;;;;;;1.58;55.36;101372.81;10342281;28;20078;-85
2022/03/28 17:04:42;;;;;;;4.65;1.48;;;;;;;1.92;56.52;101436.47;10366750;28;20040;-86
2022/03/28 17:09:43;;;;;;;10.80;2.00;;;;;;;0.74;56.39;101265.72;10373352;28;20042;-85
2022/03/28 17:14:45;;;;;;;10.05;2.10;;;;;;;0.57;56.74;101247.47;10372643;28;20038;-83
2022/03/28 17:19:47;;;;;;;3.85;1.75;;;;;;;0.99;57.01;101329.81;10359607;28;20201;-84
2022/03/28 17:24:48;;;;;;;9.63;1.73;;;;;;;1.33;57.26;101431.78;10348763;28;20066;-85
2022/03/28 17:29:48;;;;;;;11.73;2.55;;;;;;;0.93;57.80;101414.72;10348896;28;20509;-83
2022/03/28 17:34:49;;;;;;;36.42;7.35;;;;;;;0.85;57.96;101407.25;10350520;28;20133;-84
2022/03/28 17:39:54;;;;;;;15.60;4.28;;;;;;;-0.17;58.18;101238.25;10359144;28;20034;-83
2022/03/28 17:44:57;;;;;;;13.02;3.40;;;;;;;-1.05;58.74;101099.97;10370175;28;20049;-81
2022/03/28 17:50:00;;;;;;;20.05;5.25;;;;;;;-0.15;58.76;101317.38;10340042;28;20042;-83
2022/03/28 17:55:00;;;;;;;14.48;3.35;;;;;;;0.55;59.37;101464.59;10330262;28;20049;-85
2022/03/28 18:00:02;;;;;;;10.63;3.63;;;;;;;0.54;60.04;101451.56;10336252;28;20522;-85
2022/03/28 18:05:04;;;;;;;7.85;2.75;;;;;;;-0.19;60.34;101357.59;10358842;28;20046;-86
2022/03/28 18:10:07;;;;;;;12.88;2.85;;;;;;;0.61;60.44;101479.13;10371379;28;20641;-85
2022/03/28 18:15:10;;;;;;;18.23;3.38;;;;;;;0.07;61.02;101352.88;10355068;28;20052;-84
2022/03/28 18:20:12;;;;;;;9.47;2.60;;;;;;;0.34;60.23;101419.44;10367374;28;20064;-85
2022/03/28 18:25:14;;;;;;;4.50;2.40;;;;;;;0.06;60.39;101393.81;10359240;28;20034;-85
2022/03/28 18:30:15;;;;;;;6.45;2.22;;;;;;;0.13;61.11;101396.97;10363422;28;20049;-86
2022/03/28 18:35:17;;;;;;;7.47;1.75;;;;;;;0.07;60.70;101418.19;10355821;28;20048;-85
2022/03/28 18:40:18;;;;;;;7.78;1.83;;;;;;;0.07;60.94;101397.28;10359818;28;20048;-85
2022/03/28 18:45:19;;;;;;;3.38;1.70;;;;;;;-0.02;61.12;101375.91;10364325;28;20049;-85
2022/03/28 18:50:20;;;;;;;11.10;2.22;;;;;;;-0.22;61.19;101331.63;10353127;28;20433;-85
2022/03/28 18:55:21;;;;;;;7.57;1.92;;;;;;;-0.57;60.58;101261.09;10359567;28;20514;-86
2022/03/28 19:00:24;;;;;;;6.70;1.88;;;;;;;-1.01;61.01;101182.34;10340396;28;21066;-82
2022/03/28 19:05:25;;;;;;;8.55;1.88;;;;;;;0.18;60.67;101345.31;10371696;28;20042;-84
2022/03/28 19:10:25;;;;;;;3.65;1.75;;;;;;;-1.75;60.78;101007.78;10376302;28;20058;-84
2022/03/28 19:15:26;;;;;;;3.47;1.42;;;;;;;0.83;60.54;101427.41;10375925;28;20041;-85
2022/03/28 19:20:29;;;;;;;6.82;1.88;;;;;;;0.82;60.89;101425.72;10352906;28;20054;-84
2022/03/28 19:25:30;;;;;;;6.88;1.90;;;;;;;-1.43;61.01;101051.38;10343452;28;20135;-84
2022/03/28 19:30:31;;;;;;;8.00;2.15;;;;;;;0.30;61.60;101365.63;10353724;28;20119;-85
2022/03/28 19:35:32;;;;;;;5.63;2.50;;;;;;;0.13;61.43;101340.34;10352569;28;20141;-85
2022/03/28 19:40:34;;;;;;;5.47;2.03;;;;;;;-1.76;61.93;101050.38;10356998;28;20133;-84
2022/03/28 19:45:35;;;;;;;4.30;2.25;;;;;;;0.29;62.06;101370.94;10354314;28;20050;-85
2022/03/28 19:50:37;;;;;;;8.80;2.38;;;;;;;0.70;62.59;101431.59;10350884;28;20043;-86
2022/03/28 19:55:39;;;;;;;9.68;2.53;;;;;;;0.34;62.67;101361.09;10355171;28;20033;-86
2022/03/28 20:00:42;;;;;;;4.50;2.08;;;;;;;0.67;63.11;101413.44;10366030;28;20050;-84
2022/03/28 20:05:43;;;;;;;4.90;2.28;;;;;;;-0.38;62.47;101226.25;10364181;28;20049;-85
2022/03/28 20:10:44;;;;;;;7.72;2.08;;;;;;;-0.39;62.67;101225.44;10334978;28;20057;-83
2022/03/28 20:15:47;;;;;;;3.30;1.70;;;;;;;-0.65;62.83;101184.09;10333518;28;20042;-85
2022/03/28 20:20:48;;;;;;;9.30;2.08;;;;;;;0.06;62.56;101302.41;10374281;28;20112;-86
2022/03/28 20:25:49;;;;;;;4.57;1.83;;;;;;;-1.12;62.92;101124.66;10395477;28;20048;-85
2022/03/28 20:30:50;;;;;;;5.55;2.22;;;;;;;-1.47;63.02;101073.28;10403579;28;20037;-87
2022/03/28 20:35:51;;;;;;;3.17;1.75;;;;;;;-0.12;63.20;101280.66;10397262;28;20056;-85
2022/03/28 20:40:54;;;;;;;6.78;2.20;;;;;;;-1.64;63.34;101028.97;10392800;28;20042;-84
2022/03/28 20:45:56;;;;;;;7.07;2.25;;;;;;;-0.31;63.51;101251.13;10384650;28;20045;-84
2022/03/28 20:51:00;;;;;;;7.72;1.90;;;;;;;0.51;63.33;101378.53;10387075;28;20030;-85
2022/03/28 20:56:02;;;;;;;8.07;2.45;;;;;;;0.34;63.50;101354.09;10379141;28;20639;-86
2022/03/28 21:01:10;;;;;;;13.77;2.60;;;;;;;0.24;64.31;101329.38;10375658;28;20042;-85
2022/03/28 21:06:10;;;;;;;4.82;2.22;;;;;;;0.47;63.76;101375.22;10371806;28;20046;-85
2022/03/28 21:11:11;;;;;;;5.32;2.50;;;;;;;0.08;63.56;101312.75;10373851;28;20095;-85
2022/03/28 21:16:12;;;;;;;4.90;2.10;;;;;;;-0.22;63.63;101275.94;10373456;28;20045;-84
2022/03/28 21:21:14;;;;;;;4.90;1.83;;;;;;;0.12;63.34;101319.50;10372097;28;20527;-85
2022/03/28 21:26:15;;;;;;;5.68;1.77;;;;;;;-0.18;63.25;101267.91;10373378;28;20045;-85
2022/03/28 21:31:16;;;;;;;8.23;1.92;;;;;;;-1.15;63.58;101118.66;10371647;28;20486;-85
2022/03/28 21:36:17;;;;;;;8.48;1.85;;;;;;;-0.20;63.39;101287.16;10378380;28;20049;-85
2022/03/28 21:41:17;;;;;;;13.32;2.00;;;;;;;0.26;64.19;101361.47;10378500;28;20097;-87
2022/03/28 21:46:18;;;;;;;6.00;2.00;;;;;;;0.17;64.29;101346.25;10379401;28;20485;-87
2022/03/28 21:51:23;;;;;;;6.80;2.03;;;;;;;-0.58;64.82;101214.19;10378463;28;20164;-86
2022/03/28 21:56:24;;;;;;;4.93;2.00;;;;;;;0.28;64.26;101341.34;10376458;28;20050;-85
2022/03/28 22:01:25;;;;;;;5.75;1.75;;;;;;;0.06;63.57;101314.59;10379418;28;20045;-85
2022/03/28 22:06:26;;;;;;;4.80;1.67;;;;;;;-0.97;64.05;101127.34;10379146;28;20452;-85
2022/03/28 22:11:27;;;;;;;5.60;2.05;;;;;;;-0.21;63.39;101249.75;10378843;28;20044;-85
2022/03/28 22:16:29;;;;;;;5.28;1.58;;;;;;;-0.09;63.91;101280.50;10378775;28;20045;-84
2022/03/28 22:21:29;;;;;;;8.23;1.77;;;;;;;0.21;63.95;101326.91;10377096;28;20069;-85
2022/03/28 22:26:30;;;;;;;4.88;1.95;;;;;;;-0.36;63.72;101240.06;10376736;28;20544;-86
2022/03/28 22:31:31;;;;;;;4.90;1.70;;;;;;;-0.12;63.98;101277.16;10357623;28;20106;-86
2022/03/28 22:36:32;;;;;;;9.50;2.03;;;;;;;0.16;64.20;101321.06;10375602;28;20042;-86
2022/03/28 22:41:33;;;;;;;12.57;1.90;;;;;;;-1.71;63.73;101020.56;10364310;28;20108;-86
2022/03/28 22:46:34;;;;;;;6.55;1.80;;;;;;;-1.05;63.81;101121.66;10336032;28;20146;-86
2022/03/28 22:51:35;;;;;;;4.28;1.65;;;;;;;-0.41;63.80;101224.63;10335901;28;20043;-86
2022/03/28 22:56:36;;;;;;;2.95;1.35;;;;;;;-1.42;63.55;101045.25;10337742;28;20581;-84
2022/03/28 23:01:37;;;;;;;9.98;1.90;;;;;;;-0.41;63.63;101208.13;10336275;28;20494;-85
2022/03/28 23:06:37;;;;;;;8.43;1.90;;;;;;;-1.22;63.12;101113.81;10335303;28;20046;-85
2022/03/28 23:11:38;;;;;;;10.68;2.00;;;;;;;-1.57;63.32;101030.34;10336255;28;20493;-85
2022/03/28 23:16:39;;;;;;;4.72;1.80;;;;;;;-2.48;63.33;100908.81;10335999;28;20478;-84
2022/03/28 23:21:40;;;;;;;4.07;1.52;;;;;;;-1.47;63.89;101104.53;10335963;28;20082;-84
2022/03/28 23:26:42;;;;;;;8.02;2.13;;;;;;;-0.99;63.82;101157.03;10334987;28;20046;-83